sensor_id;sensor_type;location;lat;lon;timestamp;P1;durP1;ratioP1;P2;durP2;ratioP2
11960;SDS011;6040;49.358;11.140;2022-08-01T00:02:05;3.20;;;2.33;;
11960;SDS011;6040;49.358;11.140;2022-08-01T00:04:32;3.50;;;2.40;;
11960;SDS011;6040;49.358;11.140;2022-08-01T00:06:59;2.60;;;2.40;;
11960;SDS011;6040;49.358;11.140;2022-08-01T00:09:26;2.53;;;2.33;;
11960;SDS011;6040;49.358;11.140;2022-08-01T00:11:53;2.90;;;2.70;;
11960;SDS011;6040;49.358;11.140;2022-08-01T00:14:20;6.20;;;2.93;;
11960;SDS011;6040;49.358;11.140;2022-08-01T00:16:46;2.90;;;2.60;;
11960;SDS011;6040;49.358;11.140;2022-08-01T00:19:15;3.00;;;2.70;;
11960;SDS011;6040;49.358;11.140;2022-08-01T00:21:41;2.77;;;2.50;;
11960;SDS011;6040;49.358;11.140;2022-08-01T00:24:08;2.77;;;2.57;;
11960;SDS011;6040;49.358;11.140;2022-08-01T00:26:35;3.27;;;2.80;;
11960;SDS011;6040;49.358;11.140;2022-08-01T00:29:02;3.57;;;2.80;;
11960;SDS011;6040;49.358;11.140;2022-08-01T00:31:29;3.40;;;3.10;;
11960;SDS011;6040;49.358;11.140;2022-08-01T00:33:56;3.93;;;2.70;;
11960;SDS011;6040;49.358;11.140;2022-08-01T00:36:24;3.10;;;2.80;;
11960;SDS011;6040;49.358;11.140;2022-08-01T00:38:51;2.93;;;2.50;;
11960;SDS011;6040;49.358;11.140;2022-08-01T00:41:18;2.80;;;2.50;;
11960;SDS011;6040;49.358;11.140;2022-08-01T00:43:45;3.53;;;2.63;;
11960;SDS011;6040;49.358;11.140;2022-08-01T00:46:12;4.30;;;2.60;;
11960;SDS011;6040;49.358;11.140;2022-08-01T00:48:38;5.23;;;2.70;;
11960;SDS011;6040;49.358;11.140;2022-08-01T00:51:05;3.80;;;2.80;;
11960;SDS011;6040;49.358;11.140;2022-08-01T00:53:35;3.40;;;2.57;;
11960;SDS011;6040;49.358;11.140;2022-08-01T00:56:02;2.80;;;2.60;;
11960;SDS011;6040;49.358;11.140;2022-08-01T00:58:30;4.60;;;3.07;;
11960;SDS011;6040;49.358;11.140;2022-08-01T01:00:57;3.43;;;2.97;;
11960;SDS011;6040;49.358;11.140;2022-08-01T01:03:24;3.43;;;3.00;;
11960;SDS011;6040;49.358;11.140;2022-08-01T01:05:54;4.00;;;3.00;;
11960;SDS011;6040;49.358;11.140;2022-08-01T01:08:30;3.20;;;3.00;;
11960;SDS011;6040;49.358;11.140;2022-08-01T01:11:08;4.17;;;3.67;;
11960;SDS011;6040;49.358;11.140;2022-08-01T01:13:41;4.20;;;3.10;;
11960;SDS011;6040;49.358;11.140;2022-08-01T01:16:12;3.20;;;2.90;;
11960;SDS011;6040;49.358;11.140;2022-08-01T01:18:42;3.03;;;2.60;;
11960;SDS011;6040;49.358;11.140;2022-08-01T01:21:13;3.40;;;3.10;;
11960;SDS011;6040;49.358;11.140;2022-08-01T01:24:10;5.93;;;3.33;;
11960;SDS011;6040;49.358;11.140;2022-08-01T01:26:59;3.57;;;3.27;;
11960;SDS011;6040;49.358;11.140;2022-08-01T01:29:35;4.70;;;3.17;;
11960;SDS011;6040;49.358;11.140;2022-08-01T01:32:09;3.97;;;3.17;;
11960;SDS011;6040;49.358;11.140;2022-08-01T01:34:43;3.83;;;3.20;;
11960;SDS011;6040;49.358;11.140;2022-08-01T01:37:12;4.10;;;3.20;;
11960;SDS011;6040;49.358;11.140;2022-08-01T01:39:42;3.97;;;3.20;;
11960;SDS011;6040;49.358;11.140;2022-08-01T01:42:10;3.60;;;3.30;;
11960;SDS011;6040;49.358;11.140;2022-08-01T01:44:38;5.30;;;3.27;;
11960;SDS011;6040;49.358;11.140;2022-08-01T01:47:07;5.60;;;3.50;;
11960;SDS011;6040;49.358;11.140;2022-08-01T01:49:34;4.50;;;3.17;;
11960;SDS011;6040;49.358;11.140;2022-08-01T01:52:01;5.57;;;3.30;;
11960;SDS011;6040;49.358;11.140;2022-08-01T01:54:30;3.87;;;3.43;;
11960;SDS011;6040;49.358;11.140;2022-08-01T01:57:00;3.30;;;3.10;;
11960;SDS011;6040;49.358;11.140;2022-08-01T01:59:28;3.30;;;3.00;;
11960;SDS011;6040;49.358;11.140;2022-08-01T02:02:01;3.27;;;3.00;;
11960;SDS011;6040;49.358;11.140;2022-08-01T02:04:30;3.77;;;2.97;;
11960;SDS011;6040;49.358;11.140;2022-08-01T02:06:58;3.63;;;3.27;;
11960;SDS011;6040;49.358;11.140;2022-08-01T02:09:26;3.80;;;3.03;;
11960;SDS011;6040;49.358;11.140;2022-08-01T02:11:54;4.00;;;3.00;;
11960;SDS011;6040;49.358;11.140;2022-08-01T02:14:23;3.10;;;2.90;;
11960;SDS011;6040;49.358;11.140;2022-08-01T02:16:52;6.50;;;2.80;;
11960;SDS011;6040;49.358;11.140;2022-08-01T02:19:25;3.97;;;3.00;;
11960;SDS011;6040;49.358;11.140;2022-08-01T02:21:55;3.47;;;3.17;;
11960;SDS011;6040;49.358;11.140;2022-08-01T02:24:24;3.97;;;3.57;;
11960;SDS011;6040;49.358;11.140;2022-08-01T02:26:58;3.33;;;3.03;;
11960;SDS011;6040;49.358;11.140;2022-08-01T02:29:36;3.43;;;3.13;;
11960;SDS011;6040;49.358;11.140;2022-08-01T02:32:07;3.50;;;3.20;;
11960;SDS011;6040;49.358;11.140;2022-08-01T02:34:38;3.53;;;3.20;;
11960;SDS011;6040;49.358;11.140;2022-08-01T02:37:06;3.47;;;3.17;;
11960;SDS011;6040;49.358;11.140;2022-08-01T02:39:35;3.50;;;3.20;;
11960;SDS011;6040;49.358;11.140;2022-08-01T02:42:04;3.90;;;3.50;;
11960;SDS011;6040;49.358;11.140;2022-08-01T02:44:35;4.37;;;3.43;;
11960;SDS011;6040;49.358;11.140;2022-08-01T02:47:04;4.63;;;3.37;;
11960;SDS011;6040;49.358;11.140;2022-08-01T02:49:32;3.97;;;3.23;;
11960;SDS011;6040;49.358;11.140;2022-08-01T02:52:03;3.63;;;3.30;;
11960;SDS011;6040;49.358;11.140;2022-08-01T02:54:33;3.77;;;2.90;;
11960;SDS011;6040;49.358;11.140;2022-08-01T02:57:02;4.90;;;3.60;;
11960;SDS011;6040;49.358;11.140;2022-08-01T02:59:32;3.90;;;3.50;;
11960;SDS011;6040;49.358;11.140;2022-08-01T03:02:02;4.57;;;3.17;;
11960;SDS011;6040;49.358;11.140;2022-08-01T03:04:30;3.47;;;3.20;;
11960;SDS011;6040;49.358;11.140;2022-08-01T03:07:00;4.90;;;3.70;;
11960;SDS011;6040;49.358;11.140;2022-08-01T03:09:31;3.53;;;3.23;;
11960;SDS011;6040;49.358;11.140;2022-08-01T03:12:03;3.77;;;3.47;;
11960;SDS011;6040;49.358;11.140;2022-08-01T03:14:35;3.60;;;2.90;;
11960;SDS011;6040;49.358;11.140;2022-08-01T03:17:04;3.47;;;3.17;;
11960;SDS011;6040;49.358;11.140;2022-08-01T03:19:33;3.67;;;3.23;;
11960;SDS011;6040;49.358;11.140;2022-08-01T03:22:04;3.47;;;2.97;;
11960;SDS011;6040;49.358;11.140;2022-08-01T03:24:34;4.73;;;3.30;;
11960;SDS011;6040;49.358;11.140;2022-08-01T03:27:02;3.60;;;3.30;;
11960;SDS011;6040;49.358;11.140;2022-08-01T03:29:30;3.77;;;3.47;;
11960;SDS011;6040;49.358;11.140;2022-08-01T03:31:59;4.57;;;3.70;;
11960;SDS011;6040;49.358;11.140;2022-08-01T03:34:27;4.93;;;3.47;;
11960;SDS011;6040;49.358;11.140;2022-08-01T03:36:56;3.43;;;3.23;;
11960;SDS011;6040;49.358;11.140;2022-08-01T03:39:30;5.67;;;3.40;;
11960;SDS011;6040;49.358;11.140;2022-08-01T03:42:04;4.07;;;3.57;;
11960;SDS011;6040;49.358;11.140;2022-08-01T03:44:35;4.47;;;3.40;;
11960;SDS011;6040;49.358;11.140;2022-08-01T03:47:05;3.90;;;3.60;;
11960;SDS011;6040;49.358;11.140;2022-08-01T03:49:35;9.03;;;3.70;;
11960;SDS011;6040;49.358;11.140;2022-08-01T03:52:06;3.70;;;3.40;;
11960;SDS011;6040;49.358;11.140;2022-08-01T03:54:37;4.37;;;3.63;;
11960;SDS011;6040;49.358;11.140;2022-08-01T03:57:07;4.90;;;3.73;;
11960;SDS011;6040;49.358;11.140;2022-08-01T03:59:36;4.87;;;3.90;;
11960;SDS011;6040;49.358;11.140;2022-08-01T04:02:04;4.80;;;3.63;;
11960;SDS011;6040;49.358;11.140;2022-08-01T04:04:32;5.67;;;4.10;;
11960;SDS011;6040;49.358;11.140;2022-08-01T04:06:59;4.20;;;3.73;;
11960;SDS011;6040;49.358;11.140;2022-08-01T04:09:31;5.30;;;3.33;;
11960;SDS011;6040;49.358;11.140;2022-08-01T04:12:00;4.40;;;3.50;;
11960;SDS011;6040;49.358;11.140;2022-08-01T04:14:27;4.27;;;3.60;;
11960;SDS011;6040;49.358;11.140;2022-08-01T04:16:54;3.80;;;3.50;;
11960;SDS011;6040;49.358;11.140;2022-08-01T04:19:21;4.07;;;3.70;;
11960;SDS011;6040;49.358;11.140;2022-08-01T04:21:48;5.07;;;3.50;;
11960;SDS011;6040;49.358;11.140;2022-08-01T04:24:16;3.90;;;3.50;;
11960;SDS011;6040;49.358;11.140;2022-08-01T04:26:45;5.33;;;3.60;;
11960;SDS011;6040;49.358;11.140;2022-08-01T04:29:15;3.60;;;3.30;;
11960;SDS011;6040;49.358;11.140;2022-08-01T04:31:44;5.00;;;3.73;;
11960;SDS011;6040;49.358;11.140;2022-08-01T04:34:14;4.47;;;3.63;;
11960;SDS011;6040;49.358;11.140;2022-08-01T04:36:43;8.17;;;3.93;;
11960;SDS011;6040;49.358;11.140;2022-08-01T04:39:11;4.10;;;3.67;;
11960;SDS011;6040;49.358;11.140;2022-08-01T04:41:39;4.93;;;4.03;;
11960;SDS011;6040;49.358;11.140;2022-08-01T04:44:07;7.17;;;4.40;;
11960;SDS011;6040;49.358;11.140;2022-08-01T04:46:35;5.27;;;3.63;;
11960;SDS011;6040;49.358;11.140;2022-08-01T04:49:04;5.17;;;4.23;;
11960;SDS011;6040;49.358;11.140;2022-08-01T04:51:34;4.73;;;3.97;;
11960;SDS011;6040;49.358;11.140;2022-08-01T04:54:01;4.27;;;3.87;;
11960;SDS011;6040;49.358;11.140;2022-08-01T04:56:29;5.80;;;3.90;;
11960;SDS011;6040;49.358;11.140;2022-08-01T04:58:55;4.50;;;4.10;;
11960;SDS011;6040;49.358;11.140;2022-08-01T05:01:41;4.27;;;3.87;;
11960;SDS011;6040;49.358;11.140;2022-08-01T05:04:08;4.27;;;3.93;;
11960;SDS011;6040;49.358;11.140;2022-08-01T05:06:35;4.23;;;3.83;;
11960;SDS011;6040;49.358;11.140;2022-08-01T05:09:01;4.80;;;3.60;;
11960;SDS011;6040;49.358;11.140;2022-08-01T05:11:28;4.17;;;3.87;;
11960;SDS011;6040;49.358;11.140;2022-08-01T05:13:55;4.07;;;3.67;;
11960;SDS011;6040;49.358;11.140;2022-08-01T05:16:22;4.33;;;3.90;;
11960;SDS011;6040;49.358;11.140;2022-08-01T05:18:50;7.57;;;3.70;;
11960;SDS011;6040;49.358;11.140;2022-08-01T05:21:17;6.47;;;3.90;;
11960;SDS011;6040;49.358;11.140;2022-08-01T05:23:44;4.67;;;3.87;;
11960;SDS011;6040;49.358;11.140;2022-08-01T05:26:11;4.37;;;3.87;;
11960;SDS011;6040;49.358;11.140;2022-08-01T05:28:38;7.20;;;4.13;;
11960;SDS011;6040;49.358;11.140;2022-08-01T05:31:05;5.17;;;4.00;;
11960;SDS011;6040;49.358;11.140;2022-08-01T05:33:32;5.57;;;4.00;;
11960;SDS011;6040;49.358;11.140;2022-08-01T05:36:00;4.73;;;3.70;;
11960;SDS011;6040;49.358;11.140;2022-08-01T05:38:27;3.87;;;3.57;;
11960;SDS011;6040;49.358;11.140;2022-08-01T05:40:54;5.60;;;3.63;;
11960;SDS011;6040;49.358;11.140;2022-08-01T05:43:21;4.53;;;3.60;;
11960;SDS011;6040;49.358;11.140;2022-08-01T05:45:48;4.83;;;3.67;;
11960;SDS011;6040;49.358;11.140;2022-08-01T05:48:14;5.93;;;3.40;;
11960;SDS011;6040;49.358;11.140;2022-08-01T05:50:41;3.63;;;3.17;;
11960;SDS011;6040;49.358;11.140;2022-08-01T05:53:09;4.43;;;3.50;;
11960;SDS011;6040;49.358;11.140;2022-08-01T05:55:36;4.90;;;3.70;;
11960;SDS011;6040;49.358;11.140;2022-08-01T05:58:03;4.70;;;3.27;;
11960;SDS011;6040;49.358;11.140;2022-08-01T06:00:30;4.67;;;3.50;;
11960;SDS011;6040;49.358;11.140;2022-08-01T06:02:57;5.13;;;3.10;;
11960;SDS011;6040;49.358;11.140;2022-08-01T06:05:24;4.00;;;3.13;;
11960;SDS011;6040;49.358;11.140;2022-08-01T06:07:51;4.10;;;3.30;;
11960;SDS011;6040;49.358;11.140;2022-08-01T06:10:20;2.60;;;2.40;;
11960;SDS011;6040;49.358;11.140;2022-08-01T06:12:47;3.37;;;2.30;;
11960;SDS011;6040;49.358;11.140;2022-08-01T06:15:14;3.50;;;2.00;;
11960;SDS011;6040;49.358;11.140;2022-08-01T06:17:40;5.47;;;2.50;;
11960;SDS011;6040;49.358;11.140;2022-08-01T06:20:08;3.00;;;2.10;;
11960;SDS011;6040;49.358;11.140;2022-08-01T06:22:35;2.20;;;2.00;;
11960;SDS011;6040;49.358;11.140;2022-08-01T06:25:03;3.27;;;2.03;;
11960;SDS011;6040;49.358;11.140;2022-08-01T06:27:31;3.60;;;1.80;;
11960;SDS011;6040;49.358;11.140;2022-08-01T06:30:00;4.30;;;1.90;;
11960;SDS011;6040;49.358;11.140;2022-08-01T06:32:27;2.33;;;1.87;;
11960;SDS011;6040;49.358;11.140;2022-08-01T06:34:54;2.53;;;2.00;;
11960;SDS011;6040;49.358;11.140;2022-08-01T06:37:21;1.93;;;1.80;;
11960;SDS011;6040;49.358;11.140;2022-08-01T06:39:49;2.23;;;1.80;;
11960;SDS011;6040;49.358;11.140;2022-08-01T06:42:16;2.57;;;2.10;;
11960;SDS011;6040;49.358;11.140;2022-08-01T06:44:44;1.93;;;1.80;;
11960;SDS011;6040;49.358;11.140;2022-08-01T06:47:11;1.97;;;1.70;;
11960;SDS011;6040;49.358;11.140;2022-08-01T06:49:38;1.50;;;1.40;;
11960;SDS011;6040;49.358;11.140;2022-08-01T06:52:05;2.90;;;1.80;;
11960;SDS011;6040;49.358;11.140;2022-08-01T06:54:32;3.07;;;1.87;;
11960;SDS011;6040;49.358;11.140;2022-08-01T06:56:58;3.30;;;1.70;;
11960;SDS011;6040;49.358;11.140;2022-08-01T06:59:25;4.50;;;1.67;;
11960;SDS011;6040;49.358;11.140;2022-08-01T07:01:53;2.80;;;1.90;;
11960;SDS011;6040;49.358;11.140;2022-08-01T07:04:20;1.80;;;1.60;;
11960;SDS011;6040;49.358;11.140;2022-08-01T07:06:47;4.20;;;1.75;;
11960;SDS011;6040;49.358;11.140;2022-08-01T07:09:14;2.85;;;1.60;;
11960;SDS011;6040;49.358;11.140;2022-08-01T07:11:41;2.58;;;1.45;;
11960;SDS011;6040;49.358;11.140;2022-08-01T07:14:08;2.25;;;1.65;;
11960;SDS011;6040;49.358;11.140;2022-08-01T07:16:35;1.67;;;1.57;;
11960;SDS011;6040;49.358;11.140;2022-08-01T07:19:03;1.67;;;1.58;;
11960;SDS011;6040;49.358;11.140;2022-08-01T07:21:30;2.22;;;1.65;;
11960;SDS011;6040;49.358;11.140;2022-08-01T07:23:57;3.28;;;1.65;;
11960;SDS011;6040;49.358;11.140;2022-08-01T07:26:23;2.90;;;1.77;;
11960;SDS011;6040;49.358;11.140;2022-08-01T07:28:51;1.70;;;1.45;;
11960;SDS011;6040;49.358;11.140;2022-08-01T07:31:18;1.58;;;1.48;;
11960;SDS011;6040;49.358;11.140;2022-08-01T07:33:45;1.73;;;1.55;;
11960;SDS011;6040;49.358;11.140;2022-08-01T07:36:13;2.03;;;1.58;;
11960;SDS011;6040;49.358;11.140;2022-08-01T07:38:40;1.40;;;1.30;;
11960;SDS011;6040;49.358;11.140;2022-08-01T07:41:07;1.63;;;1.45;;
11960;SDS011;6040;49.358;11.140;2022-08-01T07:43:34;2.00;;;1.70;;
11960;SDS011;6040;49.358;11.140;2022-08-01T07:46:01;1.98;;;1.30;;
11960;SDS011;6040;49.358;11.140;2022-08-01T07:48:29;2.83;;;1.40;;
11960;SDS011;6040;49.358;11.140;2022-08-01T07:50:56;1.52;;;1.40;;
11960;SDS011;6040;49.358;11.140;2022-08-01T07:53:24;2.45;;;1.40;;
11960;SDS011;6040;49.358;11.140;2022-08-01T07:55:51;1.42;;;1.20;;
11960;SDS011;6040;49.358;11.140;2022-08-01T07:58:19;1.77;;;1.40;;
11960;SDS011;6040;49.358;11.140;2022-08-01T08:00:46;3.38;;;1.30;;
11960;SDS011;6040;49.358;11.140;2022-08-01T08:03:13;4.20;;;1.60;;
11960;SDS011;6040;49.358;11.140;2022-08-01T08:05:39;1.40;;;1.30;;
11960;SDS011;6040;49.358;11.140;2022-08-01T08:08:07;2.08;;;1.30;;
11960;SDS011;6040;49.358;11.140;2022-08-01T08:10:36;1.63;;;1.40;;
11960;SDS011;6040;49.358;11.140;2022-08-01T08:13:03;1.55;;;1.30;;
11960;SDS011;6040;49.358;11.140;2022-08-01T08:15:30;1.77;;;1.25;;
11960;SDS011;6040;49.358;11.140;2022-08-01T08:17:57;2.00;;;1.27;;
11960;SDS011;6040;49.358;11.140;2022-08-01T08:20:24;2.90;;;1.15;;
11960;SDS011;6040;49.358;11.140;2022-08-01T08:22:52;1.90;;;1.10;;
11960;SDS011;6040;49.358;11.140;2022-08-01T08:25:19;1.60;;;1.20;;
11960;SDS011;6040;49.358;11.140;2022-08-01T08:27:48;2.90;;;1.10;;
11960;SDS011;6040;49.358;11.140;2022-08-01T08:30:15;2.75;;;1.17;;
11960;SDS011;6040;49.358;11.140;2022-08-01T08:32:42;1.30;;;1.17;;
11960;SDS011;6040;49.358;11.140;2022-08-01T08:35:09;1.27;;;1.17;;
11960;SDS011;6040;49.358;11.140;2022-08-01T08:37:37;3.30;;;1.40;;
11960;SDS011;6040;49.358;11.140;2022-08-01T08:40:05;3.25;;;1.40;;
11960;SDS011;6040;49.358;11.140;2022-08-01T08:42:33;1.60;;;1.20;;
11960;SDS011;6040;49.358;11.140;2022-08-01T08:45:02;2.28;;;1.13;;
11960;SDS011;6040;49.358;11.140;2022-08-01T08:47:29;2.10;;;1.20;;
11960;SDS011;6040;49.358;11.140;2022-08-01T08:49:58;1.75;;;1.40;;
11960;SDS011;6040;49.358;11.140;2022-08-01T08:52:28;2.40;;;1.40;;
11960;SDS011;6040;49.358;11.140;2022-08-01T08:54:58;2.10;;;1.40;;
11960;SDS011;6040;49.358;11.140;2022-08-01T08:57:25;1.33;;;1.20;;
11960;SDS011;6040;49.358;11.140;2022-08-01T08:59:52;2.33;;;1.20;;
11960;SDS011;6040;49.358;11.140;2022-08-01T09:02:21;1.83;;;1.60;;
11960;SDS011;6040;49.358;11.140;2022-08-01T09:04:48;1.42;;;1.33;;
11960;SDS011;6040;49.358;11.140;2022-08-01T09:07:15;1.48;;;1.27;;
11960;SDS011;6040;49.358;11.140;2022-08-01T09:09:42;1.25;;;1.15;;
11960;SDS011;6040;49.358;11.140;2022-08-01T09:12:09;1.52;;;1.40;;
11960;SDS011;6040;49.358;11.140;2022-08-01T09:14:43;2.67;;;1.35;;
11960;SDS011;6040;49.358;11.140;2022-08-01T09:17:11;2.78;;;1.55;;
11960;SDS011;6040;49.358;11.140;2022-08-01T09:19:40;3.28;;;1.50;;
11960;SDS011;6040;49.358;11.140;2022-08-01T09:22:08;1.40;;;1.30;;
11960;SDS011;6040;49.358;11.140;2022-08-01T09:24:37;3.40;;;1.33;;
11960;SDS011;6040;49.358;11.140;2022-08-01T09:27:15;2.53;;;1.33;;
11960;SDS011;6040;49.358;11.140;2022-08-01T09:29:43;1.50;;;1.40;;
11960;SDS011;6040;49.358;11.140;2022-08-01T09:32:10;1.40;;;1.10;;
11960;SDS011;6040;49.358;11.140;2022-08-01T09:34:37;1.42;;;1.25;;
11960;SDS011;6040;49.358;11.140;2022-08-01T09:37:05;2.42;;;1.50;;
11960;SDS011;6040;49.358;11.140;2022-08-01T09:39:33;1.35;;;1.20;;
11960;SDS011;6040;49.358;11.140;2022-08-01T09:42:18;1.42;;;1.27;;
11960;SDS011;6040;49.358;11.140;2022-08-01T09:44:46;2.55;;;1.13;;
11960;SDS011;6040;49.358;11.140;2022-08-01T09:47:13;1.40;;;1.30;;
11960;SDS011;6040;49.358;11.140;2022-08-01T09:49:43;2.00;;;1.20;;
11960;SDS011;6040;49.358;11.140;2022-08-01T09:52:11;1.70;;;1.30;;
11960;SDS011;6040;49.358;11.140;2022-08-01T09:54:39;3.28;;;1.30;;
11960;SDS011;6040;49.358;11.140;2022-08-01T09:57:12;1.05;;;1.05;;
11960;SDS011;6040;49.358;11.140;2022-08-01T09:59:40;1.35;;;1.25;;
11960;SDS011;6040;49.358;11.140;2022-08-01T10:02:10;1.40;;;1.30;;
11960;SDS011;6040;49.358;11.140;2022-08-01T10:04:47;1.33;;;1.13;;
11960;SDS011;6040;49.358;11.140;2022-08-01T10:07:14;1.23;;;1.13;;
11960;SDS011;6040;49.358;11.140;2022-08-01T10:09:41;1.88;;;1.00;;
11960;SDS011;6040;49.358;11.140;2022-08-01T10:12:09;3.20;;;1.20;;
11960;SDS011;6040;49.358;11.140;2022-08-01T10:14:37;7.05;;;1.25;;
11960;SDS011;6040;49.358;11.140;2022-08-01T10:17:06;1.00;;;0.90;;
11960;SDS011;6040;49.358;11.140;2022-08-01T10:19:35;1.52;;;1.10;;
11960;SDS011;6040;49.358;11.140;2022-08-01T10:22:04;1.27;;;1.20;;
11960;SDS011;6040;49.358;11.140;2022-08-01T10:24:34;4.40;;;1.20;;
11960;SDS011;6040;49.358;11.140;2022-08-01T10:27:03;1.67;;;1.02;;
11960;SDS011;6040;49.358;11.140;2022-08-01T10:29:34;1.08;;;1.00;;
11960;SDS011;6040;49.358;11.140;2022-08-01T10:32:03;1.60;;;1.05;;
11960;SDS011;6040;49.358;11.140;2022-08-01T10:34:31;1.30;;;1.10;;
11960;SDS011;6040;49.358;11.140;2022-08-01T10:37:00;2.25;;;1.20;;
11960;SDS011;6040;49.358;11.140;2022-08-01T10:39:29;1.25;;;1.15;;
11960;SDS011;6040;49.358;11.140;2022-08-01T10:41:57;1.40;;;1.30;;
11960;SDS011;6040;49.358;11.140;2022-08-01T10:44:24;2.35;;;1.40;;
11960;SDS011;6040;49.358;11.140;2022-08-01T10:46:54;1.00;;;1.00;;
11960;SDS011;6040;49.358;11.140;2022-08-01T10:49:26;2.13;;;1.20;;
11960;SDS011;6040;49.358;11.140;2022-08-01T10:51:56;2.25;;;1.60;;
11960;SDS011;6040;49.358;11.140;2022-08-01T10:54:24;1.10;;;1.10;;
11960;SDS011;6040;49.358;11.140;2022-08-01T10:56:52;1.33;;;1.23;;
11960;SDS011;6040;49.358;11.140;2022-08-01T10:59:21;1.25;;;1.10;;
11960;SDS011;6040;49.358;11.140;2022-08-01T11:01:55;1.77;;;1.25;;
11960;SDS011;6040;49.358;11.140;2022-08-01T11:04:32;1.88;;;1.20;;
11960;SDS011;6040;49.358;11.140;2022-08-01T11:07:04;1.25;;;1.17;;
11960;SDS011;6040;49.358;11.140;2022-08-01T11:09:38;2.67;;;1.45;;
11960;SDS011;6040;49.358;11.140;2022-08-01T11:12:09;1.50;;;1.30;;
11960;SDS011;6040;49.358;11.140;2022-08-01T11:17:42;3.72;;;1.30;;
11960;SDS011;6040;49.358;11.140;2022-08-01T11:20:14;1.83;;;1.15;;
11960;SDS011;6040;49.358;11.140;2022-08-01T11:28:44;1.00;;;1.00;;
11960;SDS011;6040;49.358;11.140;2022-08-01T11:31:32;1.95;;;1.20;;
11960;SDS011;6040;49.358;11.140;2022-08-01T11:34:00;2.65;;;1.00;;
11960;SDS011;6040;49.358;11.140;2022-08-01T11:36:27;2.50;;;1.00;;
11960;SDS011;6040;49.358;11.140;2022-08-01T11:39:12;1.20;;;1.10;;
11960;SDS011;6040;49.358;11.140;2022-08-01T11:41:40;1.20;;;1.10;;
11960;SDS011;6040;49.358;11.140;2022-08-01T11:44:10;1.70;;;1.10;;
11960;SDS011;6040;49.358;11.140;2022-08-01T11:46:48;1.73;;;1.00;;
11960;SDS011;6040;49.358;11.140;2022-08-01T11:49:27;1.00;;;1.00;;
11960;SDS011;6040;49.358;11.140;2022-08-01T11:52:03;1.27;;;1.17;;
11960;SDS011;6040;49.358;11.140;2022-08-01T11:54:33;1.73;;;1.20;;
11960;SDS011;6040;49.358;11.140;2022-08-01T11:57:04;1.20;;;1.10;;
11960;SDS011;6040;49.358;11.140;2022-08-01T11:59:37;1.25;;;1.10;;
11960;SDS011;6040;49.358;11.140;2022-08-01T12:02:14;1.05;;;1.05;;
11960;SDS011;6040;49.358;11.140;2022-08-01T12:04:49;2.72;;;1.20;;
11960;SDS011;6040;49.358;11.140;2022-08-01T12:07:20;1.30;;;1.20;;
11960;SDS011;6040;49.358;11.140;2022-08-01T12:09:47;1.30;;;1.20;;
11960;SDS011;6040;49.358;11.140;2022-08-01T12:12:22;1.10;;;1.00;;
11960;SDS011;6040;49.358;11.140;2022-08-01T12:14:53;1.10;;;1.00;;
11960;SDS011;6040;49.358;11.140;2022-08-01T12:17:34;1.13;;;1.10;;
11960;SDS011;6040;49.358;11.140;2022-08-01T12:20:04;1.00;;;1.00;;
11960;SDS011;6040;49.358;11.140;2022-08-01T12:22:32;1.42;;;0.80;;
11960;SDS011;6040;49.358;11.140;2022-08-01T12:25:07;2.53;;;1.15;;
11960;SDS011;6040;49.358;11.140;2022-08-01T12:27:35;1.00;;;1.00;;
11960;SDS011;6040;49.358;11.140;2022-08-01T12:30:06;1.00;;;1.00;;
11960;SDS011;6040;49.358;11.140;2022-08-01T12:32:35;1.67;;;1.20;;
11960;SDS011;6040;49.358;11.140;2022-08-01T12:35:04;1.10;;;1.00;;
11960;SDS011;6040;49.358;11.140;2022-08-01T12:37:34;2.33;;;1.20;;
11960;SDS011;6040;49.358;11.140;2022-08-01T12:40:02;1.73;;;1.30;;
11960;SDS011;6040;49.358;11.140;2022-08-01T12:42:36;1.52;;;1.00;;
11960;SDS011;6040;49.358;11.140;2022-08-01T12:45:06;1.23;;;1.00;;
11960;SDS011;6040;49.358;11.140;2022-08-01T12:47:35;3.70;;;1.23;;
11960;SDS011;6040;49.358;11.140;2022-08-01T12:50:04;1.73;;;1.20;;
11960;SDS011;6040;49.358;11.140;2022-08-01T12:52:32;0.90;;;0.90;;
11960;SDS011;6040;49.358;11.140;2022-08-01T12:55:08;1.02;;;0.95;;
11960;SDS011;6040;49.358;11.140;2022-08-01T12:57:37;1.63;;;1.20;;
11960;SDS011;6040;49.358;11.140;2022-08-01T13:00:09;1.67;;;1.20;;
11960;SDS011;6040;49.358;11.140;2022-08-01T13:02:39;2.33;;;1.10;;
11960;SDS011;6040;49.358;11.140;2022-08-01T13:05:07;1.25;;;1.15;;
11960;SDS011;6040;49.358;11.140;2022-08-01T13:07:40;1.25;;;1.15;;
11960;SDS011;6040;49.358;11.140;2022-08-01T13:10:09;1.30;;;1.20;;
11960;SDS011;6040;49.358;11.140;2022-08-01T13:12:36;2.53;;;1.35;;
11960;SDS011;6040;49.358;11.140;2022-08-01T13:15:19;1.30;;;1.20;;
11960;SDS011;6040;49.358;11.140;2022-08-01T13:17:48;1.30;;;1.20;;
11960;SDS011;6040;49.358;11.140;2022-08-01T13:20:22;1.30;;;1.20;;
11960;SDS011;6040;49.358;11.140;2022-08-01T13:22:54;1.17;;;1.10;;
11960;SDS011;6040;49.358;11.140;2022-08-01T13:25:21;1.60;;;1.15;;
11960;SDS011;6040;49.358;11.140;2022-08-01T13:27:48;1.77;;;1.10;;
11960;SDS011;6040;49.358;11.140;2022-08-01T13:30:15;1.20;;;1.10;;
11960;SDS011;6040;49.358;11.140;2022-08-01T13:32:53;1.48;;;1.20;;
11960;SDS011;6040;49.358;11.140;2022-08-01T13:35:23;1.00;;;1.00;;
11960;SDS011;6040;49.358;11.140;2022-08-01T13:37:50;1.10;;;1.05;;
11960;SDS011;6040;49.358;11.140;2022-08-01T13:40:22;2.85;;;1.33;;
11960;SDS011;6040;49.358;11.140;2022-08-01T13:42:51;0.90;;;0.90;;
11960;SDS011;6040;49.358;11.140;2022-08-01T13:45:19;2.45;;;1.30;;
11960;SDS011;6040;49.358;11.140;2022-08-01T13:47:47;1.88;;;1.50;;
11960;SDS011;6040;49.358;11.140;2022-08-01T13:50:15;1.65;;;1.13;;
11960;SDS011;6040;49.358;11.140;2022-08-01T13:52:41;1.30;;;1.20;;
11960;SDS011;6040;49.358;11.140;2022-08-01T13:55:08;1.55;;;1.20;;
11960;SDS011;6040;49.358;11.140;2022-08-01T13:57:35;2.78;;;1.10;;
11960;SDS011;6040;49.358;11.140;2022-08-01T14:00:02;1.10;;;1.10;;
11960;SDS011;6040;49.358;11.140;2022-08-01T14:02:31;1.27;;;1.17;;
11960;SDS011;6040;49.358;11.140;2022-08-01T14:05:00;1.38;;;1.10;;
11960;SDS011;6040;49.358;11.140;2022-08-01T14:07:27;1.30;;;1.10;;
11960;SDS011;6040;49.358;11.140;2022-08-01T14:09:54;1.20;;;1.10;;
11960;SDS011;6040;49.358;11.140;2022-08-01T14:12:21;1.48;;;1.10;;
11960;SDS011;6040;49.358;11.140;2022-08-01T14:14:48;1.48;;;1.10;;
11960;SDS011;6040;49.358;11.140;2022-08-01T14:17:15;2.50;;;1.10;;
11960;SDS011;6040;49.358;11.140;2022-08-01T14:19:42;0.98;;;0.98;;
11960;SDS011;6040;49.358;11.140;2022-08-01T14:22:10;2.38;;;1.08;;
11960;SDS011;6040;49.358;11.140;2022-08-01T14:24:37;0.80;;;0.80;;
11960;SDS011;6040;49.358;11.140;2022-08-01T14:27:04;2.28;;;1.00;;
11960;SDS011;6040;49.358;11.140;2022-08-01T14:29:31;1.20;;;0.93;;
11960;SDS011;6040;49.358;11.140;2022-08-01T14:31:58;1.00;;;1.00;;
11960;SDS011;6040;49.358;11.140;2022-08-01T14:34:24;2.35;;;1.10;;
11960;SDS011;6040;49.358;11.140;2022-08-01T14:36:51;0.98;;;0.98;;
11960;SDS011;6040;49.358;11.140;2022-08-01T14:39:20;1.85;;;1.00;;
11960;SDS011;6040;49.358;11.140;2022-08-01T14:41:47;1.73;;;1.00;;
11960;SDS011;6040;49.358;11.140;2022-08-01T14:44:14;1.20;;;1.10;;
11960;SDS011;6040;49.358;11.140;2022-08-01T14:46:41;1.15;;;1.05;;
11960;SDS011;6040;49.358;11.140;2022-08-01T14:49:09;1.20;;;1.08;;
11960;SDS011;6040;49.358;11.140;2022-08-01T14:51:36;1.27;;;1.17;;
11960;SDS011;6040;49.358;11.140;2022-08-01T14:54:03;4.70;;;1.35;;
11960;SDS011;6040;49.358;11.140;2022-08-01T14:56:32;1.38;;;1.10;;
11960;SDS011;6040;49.358;11.140;2022-08-01T14:58:59;1.27;;;1.00;;
11960;SDS011;6040;49.358;11.140;2022-08-01T15:01:26;1.20;;;1.10;;
11960;SDS011;6040;49.358;11.140;2022-08-01T15:03:53;1.55;;;1.02;;
11960;SDS011;6040;49.358;11.140;2022-08-01T15:06:21;2.28;;;0.95;;
11960;SDS011;6040;49.358;11.140;2022-08-01T15:08:48;1.67;;;1.23;;